sensor_id;sensor_type;location;lat;lon;timestamp;temperature;humidity
3578;DHT22;1803;48.494;9.696;2022-09-23T12:36:15;21.60;92.80
3578;DHT22;1803;48.494;9.696;2022-09-23T12:38:48;21.60;91.80
3578;DHT22;1803;48.494;9.696;2022-09-23T12:41:27;21.40;90.80
3578;DHT22;1803;48.494;9.696;2022-09-23T12:43:57;21.20;93.20
3578;DHT22;1803;48.494;9.696;2022-09-23T12:46:24;21.10;93.20
3578;DHT22;1803;48.494;9.696;2022-09-23T12:51:30;21.10;95.60
3578;DHT22;1803;48.494;9.696;2022-09-23T12:53:57;21.10;94.70
3578;DHT22;1803;48.494;9.696;2022-09-23T12:56:56;21.00;91.90
3578;DHT22;1803;48.494;9.696;2022-09-23T13:01:39;20.60;93.70
3578;DHT22;1803;48.494;9.696;2022-09-23T13:04:05;20.30;93.50
3578;DHT22;1803;48.494;9.696;2022-09-23T13:07:09;20.00;94.30
3578;DHT22;1803;48.494;9.696;2022-09-23T13:09:40;19.80;92.70
3578;DHT22;1803;48.494;9.696;2022-09-23T13:12:09;19.70;92.40
3578;DHT22;1803;48.494;9.696;2022-09-23T13:14:38;19.60;93.30
3578;DHT22;1803;48.494;9.696;2022-09-23T13:17:04;19.50;94.80
3578;DHT22;1803;48.494;9.696;2022-09-23T13:19:41;19.40;93.60
3578;DHT22;1803;48.494;9.696;2022-09-23T13:22:07;19.50;94.90
3578;DHT22;1803;48.494;9.696;2022-09-23T13:24:35;19.40;95.50
3578;DHT22;1803;48.494;9.696;2022-09-23T13:29:27;19.50;95.00
3578;DHT22;1803;48.494;9.696;2022-09-23T13:31:54;19.50;93.30
3578;DHT22;1803;48.494;9.696;2022-09-23T13:34:22;19.50;93.40
3578;DHT22;1803;48.494;9.696;2022-09-23T13:36:48;19.60;94.10
3578;DHT22;1803;48.494;9.696;2022-09-23T13:39:25;19.60;94.20
3578;DHT22;1803;48.494;9.696;2022-09-23T13:42:00;19.60;95.00
3578;DHT22;1803;48.494;9.696;2022-09-23T13:44:27;19.70;94.90
3578;DHT22;1803;48.494;9.696;2022-09-23T13:46:54;19.70;94.10
3578;DHT22;1803;48.494;9.696;2022-09-23T13:49:23;19.60;94.20
3578;DHT22;1803;48.494;9.696;2022-09-23T13:51:52;19.50;92.70
3578;DHT22;1803;48.494;9.696;2022-09-23T13:56:53;19.50;92.30
3578;DHT22;1803;48.494;9.696;2022-09-23T14:01:48;19.50;92.70
3578;DHT22;1803;48.494;9.696;2022-09-23T14:04:23;19.50;94.90
3578;DHT22;1803;48.494;9.696;2022-09-23T14:06:49;19.40;94.60
3578;DHT22;1803;48.494;9.696;2022-09-23T14:09:21;19.30;94.60
3578;DHT22;1803;48.494;9.696;2022-09-23T14:11:48;19.20;93.50
3578;DHT22;1803;48.494;9.696;2022-09-23T14:14:14;19.10;93.50
3578;DHT22;1803;48.494;9.696;2022-09-23T14:16:40;19.10;94.30
3578;DHT22;1803;48.494;9.696;2022-09-23T14:19:05;19.00;94.30
3578;DHT22;1803;48.494;9.696;2022-09-23T14:21:36;19.00;94.80
3578;DHT22;1803;48.494;9.696;2022-09-23T14:26:30;18.90;94.70
3578;DHT22;1803;48.494;9.696;2022-09-23T14:28:56;18.80;94.50
3578;DHT22;1803;48.494;9.696;2022-09-23T14:31:21;18.80;95.30
3578;DHT22;1803;48.494;9.696;2022-09-23T14:33:47;18.80;95.70
3578;DHT22;1803;48.494;9.696;2022-09-23T14:36:13;18.80;95.60
3578;DHT22;1803;48.494;9.696;2022-09-23T14:39:00;18.80;95.60
3578;DHT22;1803;48.494;9.696;2022-09-23T14:41:25;18.80;96.20
3578;DHT22;1803;48.494;9.696;2022-09-23T14:43:58;18.80;94.80
3578;DHT22;1803;48.494;9.696;2022-09-23T14:46:28;18.90;95.10
3578;DHT22;1803;48.494;9.696;2022-09-23T14:51:36;18.90;95.60
3578;DHT22;1803;48.494;9.696;2022-09-23T14:56:50;18.90;95.70
3578;DHT22;1803;48.494;9.696;2022-09-23T14:59:23;19.00;95.90
3578;DHT22;1803;48.494;9.696;2022-09-23T15:01:50;19.10;96.10
3578;DHT22;1803;48.494;9.696;2022-09-23T15:06:54;19.10;96.40
3578;DHT22;1803;48.494;9.696;2022-09-23T15:09:41;19.10;96.30
3578;DHT22;1803;48.494;9.696;2022-09-23T15:12:09;19.10;95.50
3578;DHT22;1803;48.494;9.696;2022-09-23T15:14:36;19.10;96.40
3578;DHT22;1803;48.494;9.696;2022-09-23T15:17:04;18.90;94.90
3578;DHT22;1803;48.494;9.696;2022-09-23T15:19:32;18.90;95.30
3578;DHT22;1803;48.494;9.696;2022-09-23T15:21:58;18.80;95.80
3578;DHT22;1803;48.494;9.696;2022-09-23T15:25:07;18.60;95.60
3578;DHT22;1803;48.494;9.696;2022-09-23T15:29:41;18.40;97.70
3578;DHT22;1803;48.494;9.696;2022-09-23T15:32:06;18.30;96.50
3578;DHT22;1803;48.494;9.696;2022-09-23T15:34:32;18.30;97.70
3578;DHT22;1803;48.494;9.696;2022-09-23T15:36:58;18.20;97.20
3578;DHT22;1803;48.494;9.696;2022-09-23T15:39:23;18.20;98.10
3578;DHT22;1803;48.494;9.696;2022-09-23T15:41:49;18.20;97.70
3578;DHT22;1803;48.494;9.696;2022-09-23T15:44:15;18.10;98.70
3578;DHT22;1803;48.494;9.696;2022-09-23T15:46:45;18.10;98.20
3578;DHT22;1803;48.494;9.696;2022-09-23T15:49:23;18.10;98.20
3578;DHT22;1803;48.494;9.696;2022-09-23T15:51:50;18.10;98.40
3578;DHT22;1803;48.494;9.696;2022-09-23T15:54:16;18.00;98.40
3578;DHT22;1803;48.494;9.696;2022-09-23T15:56:43;18.00;98.80
3578;DHT22;1803;48.494;9.696;2022-09-23T15:59:09;18.00;98.80
3578;DHT22;1803;48.494;9.696;2022-09-23T16:01:35;17.90;99.10
3578;DHT22;1803;48.494;9.696;2022-09-23T16:04:01;17.90;98.40
3578;DHT22;1803;48.494;9.696;2022-09-23T16:06:31;17.80;99.00
3578;DHT22;1803;48.494;9.696;2022-09-23T16:08:59;17.70;99.10
3578;DHT22;1803;48.494;9.696;2022-09-23T16:11:28;17.50;99.60
3578;DHT22;1803;48.494;9.696;2022-09-23T16:13:56;17.40;98.60
3578;DHT22;1803;48.494;9.696;2022-09-23T16:16:21;17.30;99.40
3578;DHT22;1803;48.494;9.696;2022-09-23T16:18:47;17.20;99.70
3578;DHT22;1803;48.494;9.696;2022-09-23T16:21:15;17.10;99.90
3578;DHT22;1803;48.494;9.696;2022-09-23T16:23:42;17.00;99.90
3578;DHT22;1803;48.494;9.696;2022-09-23T16:26:15;16.90;99.90
3578;DHT22;1803;48.494;9.696;2022-09-23T16:28:42;16.90;99.90
3578;DHT22;1803;48.494;9.696;2022-09-23T16:31:07;16.80;99.90
3578;DHT22;1803;48.494;9.696;2022-09-23T16:33:34;16.70;99.90
3578;DHT22;1803;48.494;9.696;2022-09-23T16:36:00;16.60;99.90
3578;DHT22;1803;48.494;9.696;2022-09-23T16:38:26;16.50;99.90
3578;DHT22;1803;48.494;9.696;2022-09-23T16:40:53;16.40;99.90
3578;DHT22;1803;48.494;9.696;2022-09-23T16:43:20;16.30;99.90
3578;DHT22;1803;48.494;9.696;2022-09-23T16:45:46;16.20;99.90
3578;DHT22;1803;48.494;9.696;2022-09-23T16:48:11;16.10;99.90
3578;DHT22;1803;48.494;9.696;2022-09-23T16:50:37;16.00;99.90
3578;DHT22;1803;48.494;9.696;2022-09-23T16:53:04;15.90;99.90
3578;DHT22;1803;48.494;9.696;2022-09-23T16:55:30;15.80;99.90
3578;DHT22;1803;48.494;9.696;2022-09-23T16:57:55;15.80;99.90
3578;DHT22;1803;48.494;9.696;2022-09-23T17:00:21;15.60;99.90
3578;DHT22;1803;48.494;9.696;2022-09-23T17:03:05;15.40;99.90
3578;DHT22;1803;48.494;9.696;2022-09-23T17:05:49;15.30;99.90
3578;DHT22;1803;48.494;9.696;2022-09-23T17:08:15;15.20;99.90
3578;DHT22;1803;48.494;9.696;2022-09-23T17:10:42;15.20;99.90
3578;DHT22;1803;48.494;9.696;2022-09-23T17:13:08;15.10;99.90
3578;DHT22;1803;48.494;9.696;2022-09-23T17:15:35;15.00;99.90
3578;DHT22;1803;48.494;9.696;2022-09-23T17:18:00;14.90;99.90
3578;DHT22;1803;48.494;9.696;2022-09-23T17:20:26;14.80;99.90
3578;DHT22;1803;48.494;9.696;2022-09-23T17:22:51;14.70;99.90
3578;DHT22;1803;48.494;9.696;2022-09-23T17:25:20;14.60;99.90
3578;DHT22;1803;48.494;9.696;2022-09-23T17:27:46;14.50;99.90
3578;DHT22;1803;48.494;9.696;2022-09-23T17:30:11;14.40;99.90
3578;DHT22;1803;48.494;9.696;2022-09-23T17:32:38;14.40;99.90
3578;DHT22;1803;48.494;9.696;2022-09-23T17:35:04;14.30;99.90
3578;DHT22;1803;48.494;9.696;2022-09-23T17:37:30;14.20;99.90
3578;DHT22;1803;48.494;9.696;2022-09-23T17:39:56;14.20;99.90
